Terminal Aerodrome Forecast
Issued by NWS San Angelo, TX

Home | Current Version | Previous Version | Text Only | Print | Product List | Glossary On
Versions: 1 2 3 4 5 6 7 8 9 10 11 12 13 14 15 16 17 18 19 20 21
000
FTUS44 KSJT 222033 AAB
TAFABI
TAF AMD
KABI 222033Z 2221/2318 11007KT P6SM SCT025 BKN035
     FM230130 VRB04KT P6SM VCTS BKN030CB
     FM230600 13007KT P6SM BKN020
     FM231200 36010KT P6SM VCTS BKN028CB
     FM231600 01010KT P6SM BKN035=

USA.gov is the U.S. government's official web portal to all federal, state and local government web resources and services.